Time;durP1;ratioP1;P1;durP2;ratioP2;P2;SDS_P1;SDS_P2;PMS_P1;PMS_P2;Temp;Humidity;BMP_temperature;BMP_pressure;BME280_temperature;BME280_humidity;BME280_pressure;Samples;Min_cycle;Max_cycle;Signal;HPM_P1;HPM_P2
2022/04/05 00:13:52;;;;;;;12.43;6.40;;;;;;;2.65;85.86;100270.56;31141593;28;21042;-75
2022/04/05 00:28:54;;;;;;;15.77;9.70;;;;;;;2.58;85.98;100271.25;31156524;28;20049;-75
2022/04/05 00:43:56;;;;;;;14.57;8.40;;;;;;;2.53;86.01;100268.09;31141461;28;20057;-74
2022/04/05 00:59:00;;;;;;;15.80;6.97;;;;;;;2.40;87.44;100265.59;31157329;28;20503;-80
2022/04/05 01:14:03;;;;;;;10.93;6.93;;;;;;;2.22;88.79;100243.13;31199179;28;20060;-80
2022/04/05 01:29:06;;;;;;;14.80;7.87;;;;;;;2.25;91.22;100247.00;31234424;28;20048;-81
2022/04/05 01:44:11;;;;;;;11.77;7.50;;;;;;;2.03;93.21;100235.16;31216371;28;20052;-78
2022/04/05 01:59:15;;;;;;;12.60;6.20;;;;;;;1.94;94.94;100237.28;31226095;28;20107;-80
2022/04/05 02:14:17;;;;;;;13.33;7.63;;;;;;;1.81;95.44;100238.59;31225714;28;20066;-80
2022/04/05 02:29:19;;;;;;;25.90;10.83;;;;;;;1.68;96.35;100236.06;31181548;28;20506;-80
2022/04/05 02:44:22;;;;;;;10.80;7.03;;;;;;;1.62;96.79;100232.16;31194586;28;20065;-81
2022/04/05 02:59:24;;;;;;;17.87;7.73;;;;;;;1.50;97.37;100229.63;31192822;28;20064;-81
2022/04/05 03:14:26;;;;;;;11.77;7.93;;;;;;;1.69;96.44;100226.91;31193081;28;20057;-79
2022/04/05 03:29:28;;;;;;;10.63;6.93;;;;;;;1.81;96.24;100230.56;31178579;28;20046;-80
2022/04/05 03:44:30;;;;;;;14.13;8.13;;;;;;;1.93;95.73;100231.16;31196113;28;20053;-79
2022/04/05 03:59:32;;;;;;;14.33;6.77;;;;;;;2.13;96.30;100242.56;31179309;28;20103;-80
2022/04/05 04:14:35;;;;;;;15.03;8.60;;;;;;;2.58;96.69;100244.47;31195346;28;20056;-79
2022/04/05 04:29:37;;;;;;;17.13;8.67;;;;;;;3.05;95.96;100246.66;31171483;28;20072;-79
2022/04/05 04:44:40;;;;;;;13.70;8.20;;;;;;;3.16;95.55;100257.50;31187453;28;20115;-79
2022/04/05 04:59:42;;;;;;;15.40;7.07;;;;;;;3.20;96.30;100268.28;31201999;28;20087;-81
2022/04/05 05:14:44;;;;;;;24.93;12.10;;;;;;;3.93;85.36;100266.81;31203440;28;20091;-79
2022/04/05 05:29:46;;;;;;;30.43;8.17;;;;;;;4.49;84.41;100268.44;31208796;28;20076;-80
2022/04/05 05:44:48;;;;;;;16.50;7.73;;;;;;;5.38;81.99;100256.28;31210367;28;20097;-81
2022/04/05 05:59:56;;;;;;;11.73;6.27;;;;;;;5.41;82.98;100250.13;31216563;28;20486;-81
2022/04/05 06:15:05;;;;;;;9.27;6.43;;;;;;;6.68;81.02;100237.94;31229108;28;20108;-83
2022/04/05 06:30:13;;;;;;;9.63;6.07;;;;;;;7.09;77.11;100217.38;31240516;28;20063;-82
2022/04/05 06:45:21;;;;;;;11.57;6.20;;;;;;;7.88;71.93;100221.22;31225683;28;20054;-75
2022/04/05 07:00:25;;;;;;;7.70;5.30;;;;;;;9.47;64.61;100211.91;31212925;28;20052;-74
2022/04/05 07:15:28;;;;;;;6.23;4.13;;;;;;;9.60;57.00;100204.00;31199726;28;20171;-70
2022/04/05 07:30:30;;;;;;;7.33;4.47;;;;;;;9.58;56.74;100191.63;31202067;28;20053;-71
2022/04/05 07:45:32;;;;;;;7.93;5.03;;;;;;;9.14;61.07;100187.19;31197484;28;20092;-78
2022/04/05 08:00:36;;;;;;;6.10;4.90;;;;;;;10.86;52.63;100162.38;31213220;28;20524;-74
2022/04/05 08:15:41;;;;;;;5.27;3.67;;;;;;;11.81;52.92;100142.44;31204924;28;20053;-77
2022/04/05 08:30:43;;;;;;;10.82;4.95;;;;;;;10.98;47.59;100130.31;31203223;28;20464;-77
2022/04/05 08:45:53;;;;;;;8.77;5.10;;;;;;;10.33;48.10;100125.38;31209006;28;20045;-76
2022/04/05 09:00:55;;;;;;;5.73;4.27;;;;;;;10.30;48.58;100098.31;31223485;28;20045;-77
2022/04/05 09:15:59;;;;;;;7.90;3.63;;;;;;;10.16;48.84;100085.72;31200246;28;20525;-72
2022/04/05 09:31:05;;;;;;;5.90;3.93;;;;;;;10.70;49.04;100042.06;31200976;28;20057;-78
2022/04/05 09:46:07;;;;;;;8.40;4.20;;;;;;;11.20;45.91;100039.00;31214567;28;20056;-73
2022/04/05 10:01:11;;;;;;;5.20;3.30;;;;;;;10.20;47.63;100018.63;31208993;28;20057;-72
2022/04/05 10:16:14;;;;;;;8.30;4.07;;;;;;;10.40;48.65;100007.78;31209256;28;20612;-71
2022/04/05 10:31:50;;;;;;;4.50;3.47;;;;;;;10.84;47.13;99968.44;31196001;28;20079;-72
2022/04/05 10:47:04;;;;;;;4.90;2.67;;;;;;;11.27;45.60;99960.81;31213870;28;20374;-72
2022/04/05 11:02:44;;;;;;;7.93;4.77;;;;;;;11.07;45.70;99932.97;31223867;28;20290;-71
2022/04/05 11:17:48;;;;;;;7.60;3.97;;;;;;;10.72;43.23;99901.22;31189206;28;20056;-72
2022/04/05 11:33:15;;;;;;;5.10;3.60;;;;;;;10.48;43.26;99898.66;31200645;28;20053;-78
2022/04/05 11:48:21;;;;;;;4.73;3.43;;;;;;;10.65;42.95;99857.94;31199657;28;20049;-80
2022/04/05 12:03:24;;;;;;;6.10;3.27;;;;;;;10.96;41.99;99845.56;31192321;28;20575;-83
2022/04/05 12:18:28;;;;;;;5.13;3.13;;;;;;;11.25;43.33;99838.19;31189793;28;20063;-78
2022/04/05 12:33:30;;;;;;;3.70;2.73;;;;;;;11.10;43.08;99826.16;31231520;28;20100;-73
2022/04/05 12:48:32;;;;;;;10.33;3.07;;;;;;;10.66;43.82;99826.91;31200703;28;20054;-78
2022/04/05 13:03:34;;;;;;;6.03;3.90;;;;;;;10.40;44.69;99815.13;31186901;28;20045;-80
2022/04/05 13:18:43;;;;;;;4.80;3.40;;;;;;;10.44;45.38;99775.84;31204313;28;20084;-78
2022/04/05 13:33:45;;;;;;;7.47;4.17;;;;;;;10.17;46.72;99805.16;31225699;28;20050;-74
2022/04/05 13:48:47;;;;;;;5.63;3.23;;;;;;;10.36;46.50;99782.66;31217495;28;20053;-77
2022/04/05 14:03:51;;;;;;;5.47;3.00;;;;;;;10.36;45.20;99777.22;31210099;28;20141;-78
2022/04/05 14:18:54;;;;;;;6.60;3.83;;;;;;;10.38;46.55;99764.00;31235638;28;20056;-70
2022/04/05 14:34:06;;;;;;;5.40;3.37;;;;;;;10.23;46.12;99768.22;31230915;28;20129;-70
2022/04/05 14:49:08;;;;;;;6.43;3.40;;;;;;;10.13;47.42;99758.38;31219822;28;20053;-73
2022/04/05 15:04:11;;;;;;;4.23;2.90;;;;;;;10.00;48.39;99743.94;31198253;28;20054;-77
2022/04/05 15:19:13;;;;;;;6.53;3.60;;;;;;;10.07;49.79;99743.78;31193435;28;20088;-69
2022/04/05 15:34:15;;;;;;;6.77;4.00;;;;;;;9.90;50.29;99746.50;31195065;28;20045;-76
2022/04/05 15:49:38;;;;;;;5.77;3.47;;;;;;;9.73;52.11;99730.59;31185943;28;20492;-71
2022/04/05 16:04:40;;;;;;;5.23;3.40;;;;;;;9.52;53.03;99721.00;31179699;28;20061;-81
2022/04/05 16:19:55;;;;;;;5.20;4.10;;;;;;;9.19;51.64;99741.81;31196450;28;20058;-78
2022/04/05 16:34:59;;;;;;;6.33;3.83;;;;;;;8.11;55.37;99741.34;31203933;28;20057;-79
2022/04/05 16:50:01;;;;;;;6.50;2.60;;;;;;;7.56;59.34;99739.06;31211792;28;20045;-70
2022/04/05 17:05:04;;;;;;;8.10;2.90;;;;;;;7.19;61.82;99765.72;31205772;28;20437;-72
2022/04/05 17:20:08;;;;;;;7.13;3.67;;;;;;;6.93;64.31;99789.91;31214939;28;20477;-75
2022/04/05 17:35:12;;;;;;;7.27;3.73;;;;;;;6.59;67.66;99808.75;31213404;28;20072;-75
2022/04/05 17:50:14;;;;;;;8.77;3.60;;;;;;;6.19;70.51;99805.53;31224504;28;20132;-77
2022/04/05 18:05:17;;;;;;;6.63;4.03;;;;;;;5.81;73.79;99823.44;31229995;28;20509;-72
2022/04/05 18:20:20;;;;;;;4.90;3.60;;;;;;;5.48;77.41;99832.81;31230634;28;20060;-69
2022/04/05 18:35:22;;;;;;;5.47;3.43;;;;;;;5.25;80.62;99827.09;31205804;28;20100;-72
2022/04/05 18:50:24;;;;;;;7.83;3.80;;;;;;;5.16;82.98;99842.91;31182458;28;20052;-72
2022/04/05 19:05:26;;;;;;;4.80;3.00;;;;;;;4.93;85.23;99833.34;31198774;28;20057;-72
2022/04/05 19:20:29;;;;;;;7.20;3.93;;;;;;;4.77;87.30;99819.50;31195015;28;20077;-73
2022/04/05 19:35:34;;;;;;;7.20;4.03;;;;;;;4.59;89.00;99813.38;31190922;28;20064;-73
2022/04/05 19:50:36;;;;;;;6.60;3.87;;;;;;;4.54;91.56;99808.38;31197199;28;20045;-73
2022/04/05 20:05:39;;;;;;;9.10;3.87;;;;;;;4.45;91.38;99806.84;31191722;28;20061;-73
2022/04/05 20:20:41;;;;;;;6.33;3.83;;;;;;;4.38;92.96;99788.03;31203407;28;20049;-72
2022/04/05 20:35:43;;;;;;;7.87;4.73;;;;;;;4.36;94.59;99789.56;31195249;28;20108;-73
2022/04/05 20:50:45;;;;;;;6.10;3.77;;;;;;;4.34;94.86;99787.25;31174417;28;20578;-74
2022/04/05 21:05:48;;;;;;;5.47;3.23;;;;;;;4.34;96.69;99787.25;31184815;28;20053;-72
2022/04/05 21:20:50;;;;;;;9.27;3.93;;;;;;;4.30;97.42;99781.09;31182454;28;20054;-73
2022/04/05 21:35:53;;;;;;;10.03;4.63;;;;;;;4.40;99.87;99766.91;31222637;28;20064;-72
2022/04/05 21:50:55;;;;;;;13.97;6.67;;;;;;;4.58;100.00;99766.91;31229592;28;20100;-72
2022/04/05 22:05:59;;;;;;;13.50;6.53;;;;;;;4.87;100.00;99759.56;31198795;28;20057;-71
2022/04/05 22:21:01;;;;;;;10.17;5.90;;;;;;;5.01;100.00;99770.28;31214011;28;20051;-73
2022/04/05 22:36:05;;;;;;;12.47;7.73;;;;;;;5.18;100.00;99776.03;31231565;28;20045;-73
2022/04/05 22:51:07;;;;;;;17.30;8.60;;;;;;;5.43;100.00;99758.59;31215520;28;20057;-72
2022/04/05 23:06:09;;;;;;;19.53;8.97;;;;;;;5.51;100.00;99764.72;31212122;28;20411;-72
2022/04/05 23:21:11;;;;;;;19.83;9.10;;;;;;;5.66;100.00;99725.03;31197468;28;20053;-73
2022/04/05 23:36:14;;;;;;;16.57;8.20;;;;;;;5.79;100.00;99720.72;31195671;28;20061;-73
2022/04/05 23:51:16;;;;;;;18.57;9.50;;;;;;;5.82;100.00;99715.31;31199402;28;20049;-73
